Pagina principale
METAR-TAF:

METAR-TAF

Aeroporti :

Aeroporto di Bologna-Borgo Panigale

Bologna, Italia

latitudine: 44-32N, longitudine: 011-18E, altezza: 36 m

Osservazione

Il bollettino è stato emesso 25 minuti fa, alle 11:20 UTC
Vento 4 kt da ovest, variando fra ovest/sud-ovest e nord-ovest
Temperature 13°C
Umidità 62%
Pressione 1022 hPa
Visibilità 10 km o più
Nuvoloso ad un'altezza di 3600 ft

METAR: LIPE 261120Z 28004KT 250V320 9999 BKN036 13/06 Q1022

Ora: 13:45 (11:45 UTC)

Previsione

Il bollettino è stato emesso 45 minuti fa, alle 11:00 UTC
Previsione valida dal 26 alle 12 UTC al 27 alle 12 UTC
Vento 5 kt da direzioni variabili
Visibilità 10 km o più
Nubi sparse ad un'altezza di 3000 ft

TAF: LIPE 261100Z 2612/2712 VRB05KT 9999 SCT030

Osservazioni e previsioni meteorologiche di più di 4000 aeroporti (messaggi METAR e TAF).

Le stazioni disponibili sono rappresentate dai dischi gialli e rossi sulla carta.

Puntare il mouse per vedere il nome della stazione.

Clicca sopra per visualizzare le osservazioni e previsioni meteorologiche.

Per cambiare la mappa : fare clic sui pulsanti verdi con una croce nera per ingrandire, il pulsante verde con un trattino per diminuire, o sulla freccia verde per le mappe adiacenti.


METAR-TAF: